Time;durP1;ratioP1;P1;durP2;ratioP2;P2;SDS_P1;SDS_P2;PMS_P1;PMS_P2;Temp;Humidity;BMP_temperature;BMP_pressure;BME280_temperature;BME280_humidity;BME280_pressure;Samples;Min_cycle;Max_cycle;Signal;HPM_P1;HPM_P2
2023/09/19 00:01:44;;;;;;;2.67;0.50;;;;;;;;;;5030315;28;20455;-57
2023/09/19 00:04:12;;;;;;;1.80;0.87;;;;;;;;;;5030021;28;20477;-59
2023/09/19 00:06:39;;;;;;;1.50;0.50;;;;;;;;;;5030125;28;21084;-59
2023/09/19 00:09:10;;;;;;;1.80;0.50;;;;;;;;;;5029376;28;20497;-58
2023/09/19 00:11:37;;;;;;;1.60;0.60;;;;;;;;;;5030425;28;20481;-58
2023/09/19 00:14:08;;;;;;;1.60;0.50;;;;;;;;;;5030191;28;20469;-57
2023/09/19 00:16:35;;;;;;;1.40;0.50;;;;;;;;;;5029835;28;20446;-58
2023/09/19 00:19:08;;;;;;;2.10;0.90;;;;;;;;;;5029752;28;20591;-57
2023/09/19 00:21:37;;;;;;;1.90;0.50;;;;;;;;;;5029914;28;20450;-59
2023/09/19 00:24:05;;;;;;;2.17;0.67;;;;;;;;;;5028194;28;20995;-58
2023/09/19 00:26:34;;;;;;;1.97;0.47;;;;;;;;;;5028236;28;20453;-57
2023/09/19 00:29:05;;;;;;;1.60;0.60;;;;;;;;;;5027827;28;21220;-57
2023/09/19 00:31:32;;;;;;;1.70;0.73;;;;;;;;;;5028712;28;20480;-59
2023/09/19 00:34:04;;;;;;;1.50;0.53;;;;;;;;;;5028292;28;20492;-60
2023/09/19 00:36:33;;;;;;;1.50;0.57;;;;;;;;;;5027687;28;20450;-57
2023/09/19 00:39:00;;;;;;;1.60;0.70;;;;;;;;;;5029468;28;20484;-57
2023/09/19 00:41:30;;;;;;;1.63;0.70;;;;;;;;;;5030312;28;20476;-57
2023/09/19 00:43:57;;;;;;;1.53;0.53;;;;;;;;;;5029682;28;20776;-56
2023/09/19 00:46:25;;;;;;;1.30;0.50;;;;;;;;;;5029645;28;20442;-57
2023/09/19 00:48:53;;;;;;;1.80;0.50;;;;;;;;;;5029328;28;20470;-59
2023/09/19 00:51:21;;;;;;;1.50;0.60;;;;;;;;;;5030032;28;20446;-58
2023/09/19 00:53:50;;;;;;;2.40;0.70;;;;;;;;;;5029345;28;20443;-60
2023/09/19 00:56:18;;;;;;;1.40;0.57;;;;;;;;;;5023166;28;20477;-58
2023/09/19 00:58:46;;;;;;;1.57;0.60;;;;;;;;;;5028940;28;20524;-57
2023/09/19 01:01:14;;;;;;;1.70;0.50;;;;;;;;;;5029328;28;20448;-57
2023/09/19 01:03:42;;;;;;;1.80;0.60;;;;;;;;;;5032182;28;20829;-59
2023/09/19 01:06:09;;;;;;;1.50;0.60;;;;;;;;;;5033721;28;20493;-57
2023/09/19 01:08:37;;;;;;;1.50;0.57;;;;;;;;;;5033446;28;20469;-58
2023/09/19 01:11:11;;;;;;;1.90;0.70;;;;;;;;;;5032865;28;20446;-59
2023/09/19 01:13:43;;;;;;;1.63;0.50;;;;;;;;;;5033347;28;20465;-57
2023/09/19 01:16:14;;;;;;;1.50;0.60;;;;;;;;;;5030594;28;20500;-57
2023/09/19 01:18:45;;;;;;;5.00;0.80;;;;;;;;;;5030847;28;20466;-57
2023/09/19 01:21:15;;;;;;;1.43;0.53;;;;;;;;;;5030663;28;20478;-57
2023/09/19 01:24:00;;;;;;;4.23;0.70;;;;;;;;;;5031219;28;20446;-58
2023/09/19 01:26:45;;;;;;;3.20;0.83;;;;;;;;;;5025630;28;20467;-58
2023/09/19 01:29:29;;;;;;;1.70;0.80;;;;;;;;;;5030719;28;20867;-59
2023/09/19 01:32:01;;;;;;;2.80;0.67;;;;;;;;;;5031537;28;20468;-58
2023/09/19 01:34:28;;;;;;;3.10;0.73;;;;;;;;;;5033536;28;20475;-57
2023/09/19 01:36:55;;;;;;;1.60;0.53;;;;;;;;;;5032636;28;20469;-58
2023/09/19 01:39:23;;;;;;;2.03;0.73;;;;;;;;;;5032309;28;20548;-58
2023/09/19 01:41:56;;;;;;;1.70;0.80;;;;;;;;;;5032433;28;20963;-57
2023/09/19 01:44:26;;;;;;;1.50;0.60;;;;;;;;;;5032742;28;20482;-57
2023/09/19 01:46:54;;;;;;;3.00;0.70;;;;;;;;;;5032471;28;20913;-59
2023/09/19 01:49:33;;;;;;;1.43;0.50;;;;;;;;;;5032342;28;20477;-57
2023/09/19 01:52:06;;;;;;;1.43;0.43;;;;;;;;;;5032418;28;20813;-57
2023/09/19 01:54:37;;;;;;;2.80;0.70;;;;;;;;;;5032583;28;20512;-57
2023/09/19 01:57:09;;;;;;;1.80;0.70;;;;;;;;;;5032220;28;20482;-57
2023/09/19 01:59:40;;;;;;;2.33;0.80;;;;;;;;;;5032514;28;20502;-58
2023/09/19 02:02:08;;;;;;;2.33;0.80;;;;;;;;;;5031746;28;20867;-58
2023/09/19 02:04:37;;;;;;;1.50;0.50;;;;;;;;;;5032481;28;20528;-58
2023/09/19 02:07:08;;;;;;;1.40;0.63;;;;;;;;;;5032414;28;20489;-57
2023/09/19 02:09:35;;;;;;;7.13;0.80;;;;;;;;;;5032076;28;20554;-59
2023/09/19 02:12:04;;;;;;;1.70;0.60;;;;;;;;;;5031724;28;20458;-60
2023/09/19 02:14:32;;;;;;;1.60;0.60;;;;;;;;;;5031792;28;20454;-57
2023/09/19 02:17:00;;;;;;;1.80;0.70;;;;;;;;;;5031937;28;20876;-58
2023/09/19 02:19:28;;;;;;;2.30;0.50;;;;;;;;;;5031976;28;20561;-57
2023/09/19 02:21:56;;;;;;;1.80;0.90;;;;;;;;;;5031844;28;20450;-61
2023/09/19 02:24:26;;;;;;;3.50;0.60;;;;;;;;;;5031799;28;20982;-56
2023/09/19 02:26:55;;;;;;;1.90;0.50;;;;;;;;;;5031749;28;20450;-55
2023/09/19 02:29:23;;;;;;;2.23;0.87;;;;;;;;;;5031728;28;21169;-54
2023/09/19 02:31:50;;;;;;;1.70;0.80;;;;;;;;;;5031748;28;20500;-54
2023/09/19 02:34:17;;;;;;;1.90;0.80;;;;;;;;;;5031936;28;20482;-55
2023/09/19 02:36:45;;;;;;;2.90;0.73;;;;;;;;;;5031660;28;20450;-55
2023/09/19 02:39:14;;;;;;;1.50;0.53;;;;;;;;;;5031603;28;21171;-55
2023/09/19 02:41:42;;;;;;;1.77;0.67;;;;;;;;;;5031820;28;20442;-58
2023/09/19 02:44:09;;;;;;;3.40;0.60;;;;;;;;;;5031743;28;20490;-55
2023/09/19 02:46:37;;;;;;;3.60;0.83;;;;;;;;;;5031550;28;20489;-54
2023/09/19 02:49:05;;;;;;;1.90;1.10;;;;;;;;;;5031121;28;20505;-55
2023/09/19 02:51:33;;;;;;;1.97;0.70;;;;;;;;;;5031529;28;20446;-55
2023/09/19 02:54:00;;;;;;;1.70;0.60;;;;;;;;;;5031054;28;20955;-57
2023/09/19 02:56:30;;;;;;;1.93;0.83;;;;;;;;;;5031469;28;20442;-55
2023/09/19 02:58:57;;;;;;;2.17;0.80;;;;;;;;;;5030926;28;21022;-56
2023/09/19 03:01:25;;;;;;;2.57;0.73;;;;;;;;;;5031129;28;20454;-56
2023/09/19 03:03:53;;;;;;;3.10;1.57;;;;;;;;;;5030934;28;20469;-56
2023/09/19 03:06:21;;;;;;;2.10;1.10;;;;;;;;;;5031133;28;20643;-55
2023/09/19 03:08:48;;;;;;;2.43;1.40;;;;;;;;;;5031184;28;20470;-55
2023/09/19 03:11:18;;;;;;;2.40;1.30;;;;;;;;;;5031421;28;20454;-55
2023/09/19 03:13:47;;;;;;;2.80;1.80;;;;;;;;;;5030916;28;20489;-54
2023/09/19 03:16:15;;;;;;;2.73;1.50;;;;;;;;;;5031079;28;20434;-55
2023/09/19 03:18:43;;;;;;;3.20;1.60;;;;;;;;;;5030502;28;20915;-55
2023/09/19 03:21:10;;;;;;;2.10;1.20;;;;;;;;;;5031000;28;20446;-55
2023/09/19 03:23:39;;;;;;;2.47;1.40;;;;;;;;;;5030945;28;20485;-57
2023/09/19 03:26:06;;;;;;;2.00;0.90;;;;;;;;;;5029827;28;20921;-55
2023/09/19 03:28:34;;;;;;;3.00;1.03;;;;;;;;;;5030684;28;20524;-56
2023/09/19 03:31:04;;;;;;;2.70;0.97;;;;;;;;;;5029800;28;20968;-55
2023/09/19 03:33:32;;;;;;;2.13;0.97;;;;;;;;;;5030542;28;20478;-56
2023/09/19 03:36:00;;;;;;;1.70;0.63;;;;;;;;;;5030294;28;20816;-58
2023/09/19 03:38:28;;;;;;;1.53;0.60;;;;;;;;;;5030421;28;20478;-56
2023/09/19 03:40:56;;;;;;;1.90;0.53;;;;;;;;;;5030062;28;21170;-54
2023/09/19 03:43:23;;;;;;;1.97;0.77;;;;;;;;;;5030023;28;20956;-56
2023/09/19 03:45:50;;;;;;;1.77;0.70;;;;;;;;;;5029861;28;20506;-57
2023/09/19 03:48:19;;;;;;;2.80;0.53;;;;;;;;;;5048753;22;21656;-54
2023/09/19 03:50:46;;;;;;;1.53;0.53;;;;;;;;;;5050652;28;20529;-55
2023/09/19 03:53:14;;;;;;;1.50;0.60;;;;;;;;;;5043080;28;20507;-54
2023/09/19 03:55:41;;;;;;;3.10;0.50;;;;;;;;;;5050211;28;20927;-55
2023/09/19 03:58:08;;;;;;;1.97;0.93;;;;;;;;;;5049198;28;20523;-55
2023/09/19 04:00:35;;;;;;;1.70;0.70;;;;;;;;;;5050062;28;20481;-55
2023/09/19 04:03:06;;;;;;;1.60;0.63;;;;;;;;;;5049605;28;20573;-54
2023/09/19 04:05:34;;;;;;;2.77;0.97;;;;;;;;;;5050096;28;20859;-56
2023/09/19 04:08:02;;;;;;;1.70;1.00;;;;;;;;;;5050102;28;20578;-54
2023/09/19 04:10:29;;;;;;;1.60;0.70;;;;;;;;;;5050236;28;20480;-55
2023/09/19 04:12:57;;;;;;;1.50;0.60;;;;;;;;;;5049565;28;20449;-55
2023/09/19 04:15:24;;;;;;;2.67;1.00;;;;;;;;;;5044566;28;20465;-55
2023/09/19 04:17:51;;;;;;;1.77;0.60;;;;;;;;;;5049466;28;20453;-55
2023/09/19 04:20:19;;;;;;;1.47;0.63;;;;;;;;;;5049906;28;20492;-55
2023/09/19 04:22:48;;;;;;;1.70;0.60;;;;;;;;;;5049845;28;20834;-56
2023/09/19 04:25:15;;;;;;;2.10;1.10;;;;;;;;;;5049845;28;20519;-56
2023/09/19 04:27:43;;;;;;;1.70;0.90;;;;;;;;;;5049011;28;20445;-55
2023/09/19 04:30:11;;;;;;;2.10;1.40;;;;;;;;;;5049385;28;20512;-56
2023/09/19 04:32:40;;;;;;;2.20;1.20;;;;;;;;;;5049633;28;20482;-56
2023/09/19 04:35:08;;;;;;;1.60;0.90;;;;;;;;;;5048854;28;20452;-55
2023/09/19 04:37:37;;;;;;;1.80;0.90;;;;;;;;;;5050476;28;20449;-55
2023/09/19 04:40:07;;;;;;;2.23;0.60;;;;;;;;;;5053895;28;20657;-55
2023/09/19 04:42:34;;;;;;;1.60;0.67;;;;;;;;;;5054031;28;20585;-55
2023/09/19 04:45:04;;;;;;;1.70;0.80;;;;;;;;;;5053608;28;20453;-56
2023/09/19 04:47:32;;;;;;;3.37;0.67;;;;;;;;;;5053234;28;20491;-55
2023/09/19 04:49:59;;;;;;;1.70;1.00;;;;;;;;;;5053020;28;20527;-55
2023/09/19 04:52:26;;;;;;;2.60;1.30;;;;;;;;;;5052875;28;20445;-55
2023/09/19 04:54:53;;;;;;;2.77;0.80;;;;;;;;;;5053439;28;20515;-55
2023/09/19 04:57:22;;;;;;;5.30;1.43;;;;;;;;;;5053634;28;20542;-55
2023/09/19 04:59:50;;;;;;;2.33;0.80;;;;;;;;;;5053090;28;20469;-55
2023/09/19 05:02:17;;;;;;;2.23;0.90;;;;;;;;;;5050293;28;20457;-54
2023/09/19 05:04:44;;;;;;;1.80;0.90;;;;;;;;;;5052232;28;20477;-55
2023/09/19 05:07:12;;;;;;;1.50;0.60;;;;;;;;;;5052102;28;20700;-54
2023/09/19 05:09:39;;;;;;;1.60;0.80;;;;;;;;;;5053146;28;20549;-57
2023/09/19 05:12:06;;;;;;;1.80;0.90;;;;;;;;;;5051501;28;20449;-56
2023/09/19 05:14:35;;;;;;;1.77;0.63;;;;;;;;;;5051023;28;20433;-57
2023/09/19 05:17:04;;;;;;;4.07;0.80;;;;;;;;;;5049494;28;20457;-57
2023/09/19 05:19:31;;;;;;;1.63;0.60;;;;;;;;;;5052056;28;20473;-56
2023/09/19 05:21:58;;;;;;;1.80;0.83;;;;;;;;;;5051889;28;20510;-56
2023/09/19 05:24:26;;;;;;;2.03;1.00;;;;;;;;;;5051800;28;20453;-57
2023/09/19 05:26:55;;;;;;;1.50;0.60;;;;;;;;;;5048985;28;20505;-57
2023/09/19 05:29:22;;;;;;;4.80;0.77;;;;;;;;;;5050642;28;20481;-56
2023/09/19 05:31:51;;;;;;;1.60;0.70;;;;;;;;;;5050748;28;20445;-56
2023/09/19 05:34:18;;;;;;;1.63;0.80;;;;;;;;;;5051014;28;20467;-57
2023/09/19 05:36:45;;;;;;;1.50;0.67;;;;;;;;;;5051091;28;20527;-56
2023/09/19 05:39:13;;;;;;;1.97;0.73;;;;;;;;;;5050818;28;20465;-56
2023/09/19 05:41:41;;;;;;;3.50;1.80;;;;;;;;;;5052820;28;20550;-57
2023/09/19 05:44:09;;;;;;;2.70;1.47;;;;;;;;;;5051766;28;20503;-57
2023/09/19 05:46:36;;;;;;;2.83;1.70;;;;;;;;;;5051650;28;20523;-56
2023/09/19 05:49:05;;;;;;;3.27;1.33;;;;;;;;;;5049396;28;20526;-56
2023/09/19 05:51:32;;;;;;;7.33;2.20;;;;;;;;;;5047234;28;20462;-57
2023/09/19 05:53:59;;;;;;;3.30;1.50;;;;;;;;;;5052120;28;20542;-57
2023/09/19 05:56:27;;;;;;;2.20;1.10;;;;;;;;;;5050701;28;20457;-56
2023/09/19 05:58:54;;;;;;;3.07;1.30;;;;;;;;;;5051742;28;20944;-58
2023/09/19 06:01:22;;;;;;;2.90;1.37;;;;;;;;;;5051970;28;20449;-57
2023/09/19 06:03:49;;;;;;;5.10;1.53;;;;;;;;;;5052044;28;20460;-57
2023/09/19 06:06:18;;;;;;;2.00;0.93;;;;;;;;;;5051480;28;20559;-58
2023/09/19 06:08:46;;;;;;;2.60;1.27;;;;;;;;;;5051794;28;20824;-58
2023/09/19 06:11:13;;;;;;;2.20;1.20;;;;;;;;;;5050435;28;20450;-58
2023/09/19 06:13:40;;;;;;;2.10;1.10;;;;;;;;;;5051076;28;20445;-56
2023/09/19 06:16:09;;;;;;;4.80;1.00;;;;;;;;;;5051186;28;20442;-56
2023/09/19 06:18:36;;;;;;;1.80;0.70;;;;;;;;;;5051224;28;20469;-57
2023/09/19 06:21:07;;;;;;;1.87;0.70;;;;;;;;;;5051755;28;20975;-57
2023/09/19 06:23:36;;;;;;;2.40;1.50;;;;;;;;;;5051876;28;20446;-56
2023/09/19 06:26:06;;;;;;;5.60;1.70;;;;;;;;;;5051467;28;20479;-58
2023/09/19 06:28:33;;;;;;;6.87;2.10;;;;;;;;;;5051113;28;20480;-57
2023/09/19 06:31:01;;;;;;;3.77;1.33;;;;;;;;;;5051296;28;20547;-57
2023/09/19 06:33:28;;;;;;;3.80;1.57;;;;;;;;;;5051343;28;20454;-56
2023/09/19 06:35:59;;;;;;;5.03;1.80;;;;;;;;;;5051471;28;20523;-56
2023/09/19 06:38:26;;;;;;;3.00;1.80;;;;;;;;;;5051438;28;20473;-57
2023/09/19 06:40:55;;;;;;;2.07;1.20;;;;;;;;;;5050789;28;20850;-56
2023/09/19 06:43:23;;;;;;;2.50;1.20;;;;;;;;;;5050706;28;20652;-58
2023/09/19 06:45:51;;;;;;;2.53;1.20;;;;;;;;;;5050450;28;20449;-58
2023/09/19 06:48:19;;;;;;;3.67;1.27;;;;;;;;;;5049466;28;20987;-58
2023/09/19 06:50:47;;;;;;;6.10;1.50;;;;;;;;;;5050663;28;20872;-56
2023/09/19 06:53:15;;;;;;;2.50;1.30;;;;;;;;;;5050277;28;20437;-58
2023/09/19 06:55:43;;;;;;;2.80;1.10;;;;;;;;;;5051102;28;20469;-57
2023/09/19 06:58:12;;;;;;;3.20;1.20;;;;;;;;;;5050437;28;21069;-57
2023/09/19 07:00:39;;;;;;;3.23;1.60;;;;;;;;;;5050858;28;20519;-56
2023/09/19 07:03:11;;;;;;;2.43;0.97;;;;;;;;;;5051498;28;20878;-57
2023/09/19 07:05:39;;;;;;;1.87;1.20;;;;;;;;;;5051770;28;20457;-56
2023/09/19 07:08:06;;;;;;;2.23;1.30;;;;;;;;;;5050771;28;21072;-58
2023/09/19 07:10:34;;;;;;;5.30;2.00;;;;;;;;;;5051553;28;20536;-57
2023/09/19 07:13:02;;;;;;;2.53;1.27;;;;;;;;;;5050705;28;20544;-57
2023/09/19 07:15:33;;;;;;;2.60;1.17;;;;;;;;;;5051104;28;20437;-57
2023/09/19 07:18:00;;;;;;;2.20;0.80;;;;;;;;;;5050711;28;20460;-56
2023/09/19 07:20:31;;;;;;;3.23;1.33;;;;;;;;;;5051584;28;20511;-57
2023/09/19 07:22:59;;;;;;;3.37;1.30;;;;;;;;;;5051621;28;20477;-57
2023/09/19 07:25:26;;;;;;;2.07;1.03;;;;;;;;;;5051372;28;20456;-57
2023/09/19 07:27:54;;;;;;;4.27;1.30;;;;;;;;;;5050915;28;20558;-56
2023/09/19 07:30:21;;;;;;;2.80;0.90;;;;;;;;;;5050830;28;20476;-56
2023/09/19 07:32:50;;;;;;;4.93;1.20;;;;;;;;;;5051249;28;20802;-58
2023/09/19 07:35:19;;;;;;;2.70;0.97;;;;;;;;;;5043998;28;21005;-57
2023/09/19 07:37:49;;;;;;;2.20;1.37;;;;;;;;;;5049818;28;20437;-57
2023/09/19 07:40:16;;;;;;;2.13;1.20;;;;;;;;;;5048639;28;20467;-56
2023/09/19 07:42:44;;;;;;;2.37;1.33;;;;;;;;;;5050363;28;20481;-57
2023/09/19 07:45:14;;;;;;;3.20;1.13;;;;;;;;;;5049646;28;20528;-57
2023/09/19 07:47:42;;;;;;;2.87;1.40;;;;;;;;;;5048220;28;20559;-57
2023/09/19 07:50:11;;;;;;;1.73;0.77;;;;;;;;;;5049650;28;20461;-58
2023/09/19 07:52:39;;;;;;;2.23;0.90;;;;;;;;;;5050516;28;20433;-57
2023/09/19 07:55:09;;;;;;;3.30;0.90;;;;;;;;;;5050529;28;20524;-57
2023/09/19 07:57:37;;;;;;;1.80;0.80;;;;;;;;;;5050436;28;20931;-57
2023/09/19 08:00:06;;;;;;;2.83;1.50;;;;;;;;;;5050510;28;20465;-58
2023/09/19 08:02:37;;;;;;;3.40;1.43;;;;;;;;;;5050569;28;20578;-58
2023/09/19 08:05:06;;;;;;;1.77;0.73;;;;;;;;;;5050018;28;20815;-56
2023/09/19 08:07:36;;;;;;;3.97;1.20;;;;;;;;;;5049903;28;20630;-57
2023/09/19 08:10:03;;;;;;;2.67;1.20;;;;;;;;;;5049516;28;20464;-56
2023/09/19 08:12:32;;;;;;;3.13;1.70;;;;;;;;;;5049896;28;20497;-57
2023/09/19 08:14:59;;;;;;;3.53;2.23;;;;;;;;;;5050314;28;20453;-57
2023/09/19 08:17:27;;;;;;;4.20;2.07;;;;;;;;;;5050150;28;20434;-57
2023/09/19 08:19:54;;;;;;;2.90;1.80;;;;;;;;;;5048187;28;20468;-58
2023/09/19 08:22:21;;;;;;;3.20;1.43;;;;;;;;;;5047289;28;20499;-57
2023/09/19 08:24:50;;;;;;;2.40;1.53;;;;;;;;;;5049268;28;20448;-54
2023/09/19 08:27:18;;;;;;;2.47;1.20;;;;;;;;;;5049589;28;20473;-54
2023/09/19 08:29:46;;;;;;;2.10;0.87;;;;;;;;;;5049615;28;20464;-54
2023/09/19 08:32:14;;;;;;;2.20;1.20;;;;;;;;;;5049992;28;20464;-57
2023/09/19 08:34:41;;;;;;;2.70;1.37;;;;;;;;;;5049882;28;20499;-58
2023/09/19 08:37:10;;;;;;;2.67;1.40;;;;;;;;;;5048178;28;21496;-57
2023/09/19 08:39:37;;;;;;;2.83;1.20;;;;;;;;;;5049531;28;20540;-56
2023/09/19 08:42:07;;;;;;;2.40;1.10;;;;;;;;;;5049444;28;20449;-55
2023/09/19 08:44:40;;;;;;;2.80;1.30;;;;;;;;;;5049465;28;20492;-55
2023/09/19 08:47:10;;;;;;;3.10;1.37;;;;;;;;;;5048311;28;20504;-57
2023/09/19 08:49:44;;;;;;;1.70;0.90;;;;;;;;;;5049268;28;21039;-56
2023/09/19 08:52:18;;;;;;;1.70;0.90;;;;;;;;;;5049117;28;20434;-55
2023/09/19 08:54:46;;;;;;;2.77;1.33;;;;;;;;;;5049424;28;20460;-56
2023/09/19 08:57:21;;;;;;;2.13;1.00;;;;;;;;;;5049201;28;20469;-55
2023/09/19 08:59:49;;;;;;;2.03;1.00;;;;;;;;;;5049096;28;20950;-56
2023/09/19 09:02:19;;;;;;;2.50;0.97;;;;;;;;;;5049222;28;20437;-56
2023/09/19 09:04:47;;;;;;;2.80;1.17;;;;;;;;;;5049354;28;20510;-55
2023/09/19 09:07:16;;;;;;;1.90;1.13;;;;;;;;;;5048864;28;20551;-57
2023/09/19 09:09:44;;;;;;;2.07;1.03;;;;;;;;;;5049103;28;20466;-55
2023/09/19 09:12:13;;;;;;;2.07;1.20;;;;;;;;;;5048958;28;20449;-57
2023/09/19 09:14:42;;;;;;;2.50;1.00;;;;;;;;;;5048956;28;20452;-55
2023/09/19 09:17:09;;;;;;;2.20;0.90;;;;;;;;;;5048167;28;20503;-56
2023/09/19 09:19:36;;;;;;;3.83;0.90;;;;;;;;;;5049253;28;20468;-55
2023/09/19 09:22:08;;;;;;;2.40;1.13;;;;;;;;;;5048979;28;20445;-55
2023/09/19 09:24:37;;;;;;;1.60;0.70;;;;;;;;;;5051452;28;21009;-55
2023/09/19 09:27:08;;;;;;;2.40;1.00;;;;;;;;;;5050902;28;20480;-55
2023/09/19 09:29:49;;;;;;;1.90;0.80;;;;;;;;;;5052625;28;20470;-55
2023/09/19 09:32:20;;;;;;;1.80;0.90;;;;;;;;;;5053228;28;20453;-56
2023/09/19 09:34:48;;;;;;;3.30;1.13;;;;;;;;;;5052499;28;20802;-56
2023/09/19 09:37:19;;;;;;;3.50;1.33;;;;;;;;;;5052403;28;20920;-55
2023/09/19 09:39:58;;;;;;;1.77;0.97;;;;;;;;;;5052301;28;21025;-55
2023/09/19 09:42:33;;;;;;;2.20;1.10;;;;;;;;;;5053098;28;20528;-55
2023/09/19 09:45:15;;;;;;;2.37;0.90;;;;;;;;;;5052886;28;20535;-55
2023/09/19 09:47:49;;;;;;;2.20;1.20;;;;;;;;;;5052539;28;20925;-55
2023/09/19 09:50:29;;;;;;;1.70;0.80;;;;;;;;;;5062159;22;20496;-88
2023/09/19 09:53:00;;;;;;;1.80;0.90;;;;;;;;;;5035557;28;20457;-88
2023/09/19 09:55:28;;;;;;;3.70;1.30;;;;;;;;;;5035642;28;20815;-88
2023/09/19 09:58:18;;;;;;;2.30;1.17;;;;;;;;;;5036041;28;20454;-88
2023/09/19 10:01:02;;;;;;;2.10;1.00;;;;;;;;;;5055838;28;20450;-87
2023/09/19 10:03:34;;;;;;;2.73;0.87;;;;;;;;;;5053318;22;20497;-57
2023/09/19 10:06:09;;;;;;;2.70;1.03;;;;;;;;;;5052429;28;20446;-61
2023/09/19 10:08:36;;;;;;;1.80;0.97;;;;;;;;;;5052237;28;20489;-59
2023/09/19 10:11:16;;;;;;;2.53;0.70;;;;;;;;;;5051432;28;20449;-59
2023/09/19 10:13:46;;;;;;;2.23;1.17;;;;;;;;;;5049671;28;20437;-58
2023/09/19 10:16:15;;;;;;;2.20;1.00;;;;;;;;;;5051807;28;20754;-57
2023/09/19 10:18:44;;;;;;;3.80;1.23;;;;;;;;;;5049316;28;20541;-59
2023/09/19 10:21:12;;;;;;;2.57;1.17;;;;;;;;;;5051295;28;20814;-59
2023/09/19 10:23:40;;;;;;;2.33;1.07;;;;;;;;;;5051623;28;20499;-59
2023/09/19 10:26:08;;;;;;;3.80;1.30;;;;;;;;;;5050775;28;20442;-59
2023/09/19 10:28:37;;;;;;;2.10;0.73;;;;;;;;;;5051738;28;20513;-60
2023/09/19 10:31:05;;;;;;;1.70;0.80;;;;;;;;;;5051337;28;20434;-59
2023/09/19 10:33:37;;;;;;;2.30;1.00;;;;;;;;;;5051029;28;20445;-59
2023/09/19 10:36:06;;;;;;;2.13;1.20;;;;;;;;;;5050148;28;20528;-59
2023/09/19 10:38:35;;;;;;;2.10;1.10;;;;;;;;;;5049803;28;21213;-57
2023/09/19 10:41:03;;;;;;;1.90;1.00;;;;;;;;;;5051548;28;20445;-58
2023/09/19 10:43:32;;;;;;;2.10;0.80;;;;;;;;;;5051489;28;20433;-58
2023/09/19 10:46:03;;;;;;;3.30;1.00;;;;;;;;;;5050432;28;20601;-59
2023/09/19 10:48:31;;;;;;;1.60;0.80;;;;;;;;;;5049715;28;20481;-59
2023/09/19 10:51:04;;;;;;;2.27;1.03;;;;;;;;;;5049946;28;20480;-60
2023/09/19 10:53:34;;;;;;;1.60;0.80;;;;;;;;;;5048917;28;20803;-57
2023/09/19 10:56:09;;;;;;;1.67;0.70;;;;;;;;;;5050312;28;20570;-58
2023/09/19 10:58:39;;;;;;;3.60;0.90;;;;;;;;;;5050850;28;20552;-57
2023/09/19 11:01:07;;;;;;;2.33;1.20;;;;;;;;;;5049830;28;20489;-59
2023/09/19 11:03:37;;;;;;;1.90;1.07;;;;;;;;;;5050860;28;20458;-59
2023/09/19 11:06:06;;;;;;;2.07;0.77;;;;;;;;;;5051486;28;20885;-60
2023/09/19 11:08:49;;;;;;;3.13;1.43;;;;;;;;;;5050989;28;20481;-58
2023/09/19 11:11:31;;;;;;;2.03;0.87;;;;;;;;;;5049602;28;20502;-58
2023/09/19 11:14:14;;;;;;;1.70;0.70;;;;;;;;;;5048990;28;20526;-59
2023/09/19 11:16:43;;;;;;;3.20;1.10;;;;;;;;;;5048082;28;20536;-58
2023/09/19 11:19:11;;;;;;;2.00;0.83;;;;;;;;;;5049505;28;20532;-59
2023/09/19 11:21:55;;;;;;;2.90;0.90;;;;;;;;;;5050460;28;20540;-60
2023/09/19 11:24:38;;;;;;;2.20;0.67;;;;;;;;;;5050944;28;20488;-58
2023/09/19 11:27:13;;;;;;;1.90;0.70;;;;;;;;;;5050109;28;20967;-59
2023/09/19 11:29:40;;;;;;;2.30;0.97;;;;;;;;;;5050113;28;20473;-59
2023/09/19 11:32:09;;;;;;;2.17;1.03;;;;;;;;;;5050691;28;20514;-58
2023/09/19 11:34:48;;;;;;;2.47;1.00;;;;;;;;;;5047513;28;20457;-58
2023/09/19 11:37:34;;;;;;;2.13;0.90;;;;;;;;;;5043267;28;20445;-58
2023/09/19 11:40:15;;;;;;;1.97;0.83;;;;;;;;;;5050398;28;20461;-61
2023/09/19 11:42:44;;;;;;;2.17;0.90;;;;;;;;;;5050580;28;20796;-59
2023/09/19 11:45:28;;;;;;;2.33;0.80;;;;;;;;;;5050794;28;20469;-60
2023/09/19 11:47:56;;;;;;;1.87;0.93;;;;;;;;;;5049325;28;20476;-59
2023/09/19 11:50:25;;;;;;;2.17;0.93;;;;;;;;;;5050550;28;20470;-59
2023/09/19 11:52:55;;;;;;;1.80;0.80;;;;;;;;;;5050639;28;20700;-59
2023/09/19 11:55:24;;;;;;;2.67;1.10;;;;;;;;;;5050336;28;20935;-59
2023/09/19 11:57:52;;;;;;;1.70;0.90;;;;;;;;;;5050123;28;20503;-59
2023/09/19 12:00:21;;;;;;;3.37;0.93;;;;;;;;;;5050599;28;20840;-56
2023/09/19 12:02:51;;;;;;;2.07;1.27;;;;;;;;;;5050125;28;20481;-59
2023/09/19 12:05:21;;;;;;;2.03;0.90;;;;;;;;;;5049643;28;20951;-58
2023/09/19 12:07:49;;;;;;;3.50;1.70;;;;;;;;;;5049054;28;20481;-57
2023/09/19 12:10:17;;;;;;;3.03;1.37;;;;;;;;;;5049774;28;20547;-59
2023/09/19 12:12:50;;;;;;;2.27;1.27;;;;;;;;;;5049516;28;20437;-57
2023/09/19 12:15:28;;;;;;;2.00;1.10;;;;;;;;;;5049595;28;20524;-57
2023/09/19 12:17:56;;;;;;;3.03;1.50;;;;;;;;;;5049174;28;20947;-58
2023/09/19 12:20:23;;;;;;;2.90;1.20;;;;;;;;;;5049236;28;20565;-58
2023/09/19 12:22:50;;;;;;;2.47;1.17;;;;;;;;;;5049461;28;20445;-57
2023/09/19 12:25:20;;;;;;;3.10;1.10;;;;;;;;;;5048818;28;20498;-57
2023/09/19 12:27:47;;;;;;;2.50;1.30;;;;;;;;;;5048787;28;21064;-58
2023/09/19 12:30:17;;;;;;;2.17;0.90;;;;;;;;;;5049028;28;20548;-57
2023/09/19 12:32:45;;;;;;;2.60;1.30;;;;;;;;;;5049063;28;20812;-60
2023/09/19 12:35:28;;;;;;;2.63;1.10;;;;;;;;;;5049217;28;20499;-56
2023/09/19 12:37:56;;;;;;;2.23;1.23;;;;;;;;;;5049088;28;20445;-60
2023/09/19 12:40:27;;;;;;;3.13;1.50;;;;;;;;;;5049028;28;21011;-58
2023/09/19 12:42:55;;;;;;;1.70;0.83;;;;;;;;;;5049523;28;20540;-58
2023/09/19 12:45:24;;;;;;;3.80;1.47;;;;;;;;;;5048979;28;20520;-59
2023/09/19 12:48:29;;;;;;;1.93;1.30;;;;;;;;;;5048814;28;20441;-58
2023/09/19 12:51:11;;;;;;;1.83;1.00;;;;;;;;;;4967911;28;20859;-60
2023/09/19 12:53:40;;;;;;;1.80;0.80;;;;;;;;;;4968119;28;20697;-57
2023/09/19 12:56:09;;;;;;;1.70;0.93;;;;;;;;;;5016175;28;20532;-58
2023/09/19 12:58:49;;;;;;;3.40;1.20;;;;;;;;;;5049473;28;20475;-59
2023/09/19 13:01:18;;;;;;;3.23;1.30;;;;;;;;;;5052485;28;20476;-60
2023/09/19 13:03:46;;;;;;;3.50;1.17;;;;;;;;;;5014551;28;1106880;-58
2023/09/19 13:06:16;;;;;;;2.70;1.00;;;;;;;;;;5053862;28;20199;-59
2023/09/19 13:08:49;;;;;;;2.63;1.20;;;;;;;;;;5053028;28;20539;-60
2023/09/19 13:11:18;;;;;;;2.50;1.20;;;;;;;;;;5053834;28;20483;-58
2023/09/19 13:13:48;;;;;;;3.03;1.40;;;;;;;;;;5053462;28;20445;-59
2023/09/19 13:16:19;;;;;;;2.20;1.20;;;;;;;;;;5053641;28;20452;-58
2023/09/19 13:18:50;;;;;;;3.73;1.67;;;;;;;;;;5053784;28;20548;-58
2023/09/19 13:21:24;;;;;;;2.17;1.10;;;;;;;;;;5053415;28;20449;-59
2023/09/19 13:23:52;;;;;;;2.57;1.00;;;;;;;;;;5053250;28;20475;-60
2023/09/19 13:26:20;;;;;;;2.50;1.20;;;;;;;;;;5053780;28;20490;-60
2023/09/19 13:28:49;;;;;;;3.90;1.43;;;;;;;;;;5053137;28;20499;-57
2023/09/19 13:31:18;;;;;;;2.37;1.37;;;;;;;;;;5053233;28;20445;-59
2023/09/19 13:33:46;;;;;;;2.20;1.10;;;;;;;;;;5053226;28;20532;-58
2023/09/19 13:36:15;;;;;;;5.23;1.47;;;;;;;;;;5052731;28;20536;-58
2023/09/19 13:38:43;;;;;;;3.63;1.70;;;;;;;;;;5052482;28;20874;-59
2023/09/19 13:41:11;;;;;;;5.70;1.20;;;;;;;;;;5052355;28;20536;-59
2023/09/19 13:43:38;;;;;;;2.57;1.10;;;;;;;;;;5052992;28;20540;-57
2023/09/19 13:46:07;;;;;;;2.20;1.20;;;;;;;;;;5052958;28;20965;-57
2023/09/19 13:48:35;;;;;;;2.43;1.30;;;;;;;;;;5052599;28;20481;-58
2023/09/19 13:51:04;;;;;;;2.23;1.10;;;;;;;;;;5052600;28;20454;-58
2023/09/19 13:53:33;;;;;;;1.93;1.03;;;;;;;;;;5052827;28;20483;-58
2023/09/19 13:56:01;;;;;;;6.60;1.40;;;;;;;;;;5052887;28;20445;-58
2023/09/19 13:58:29;;;;;;;1.87;1.20;;;;;;;;;;5052603;28;20527;-59
2023/09/19 14:01:00;;;;;;;1.90;1.03;;;;;;;;;;5052878;28;20452;-59
2023/09/19 14:03:28;;;;;;;2.00;0.97;;;;;;;;;;5052695;28;20594;-57
2023/09/19 14:05:55;;;;;;;2.17;1.20;;;;;;;;;;5052277;28;20457;-58
2023/09/19 14:08:23;;;;;;;2.00;1.10;;;;;;;;;;5052565;28;20593;-56
2023/09/19 14:10:53;;;;;;;2.10;0.87;;;;;;;;;;5051695;28;20445;-59
2023/09/19 14:13:21;;;;;;;2.43;1.30;;;;;;;;;;5052438;28;20445;-59
2023/09/19 14:15:49;;;;;;;1.90;1.00;;;;;;;;;;5052297;28;20532;-58
2023/09/19 14:18:16;;;;;;;2.20;1.40;;;;;;;;;;5052067;28;20445;-58
2023/09/19 14:20:43;;;;;;;2.57;0.90;;;;;;;;;;5052429;28;20495;-60
2023/09/19 14:23:11;;;;;;;2.47;1.07;;;;;;;;;;5052708;28;20452;-57
2023/09/19 14:25:39;;;;;;;3.00;1.20;;;;;;;;;;5052608;28;20441;-57
2023/09/19 14:28:08;;;;;;;2.70;1.30;;;;;;;;;;5051844;28;20445;-58
2023/09/19 14:30:37;;;;;;;2.73;1.40;;;;;;;;;;5052244;28;20476;-59
2023/09/19 14:33:04;;;;;;;2.23;1.20;;;;;;;;;;5051982;28;20445;-58
2023/09/19 14:35:31;;;;;;;2.20;1.20;;;;;;;;;;5051846;28;20452;-59
2023/09/19 14:37:59;;;;;;;1.90;1.00;;;;;;;;;;5051259;28;20503;-60
2023/09/19 14:40:26;;;;;;;2.77;1.40;;;;;;;;;;5051937;28;20524;-59
2023/09/19 14:42:54;;;;;;;2.73;1.20;;;;;;;;;;5051850;28;20449;-58
2023/09/19 14:45:23;;;;;;;3.13;1.60;;;;;;;;;;5051955;28;21039;-59
2023/09/19 14:47:54;;;;;;;2.10;1.10;;;;;;;;;;5051562;28;20452;-58
2023/09/19 14:50:22;;;;;;;2.00;1.20;;;;;;;;;;5051540;28;20491;-59
2023/09/19 14:52:51;;;;;;;2.10;1.13;;;;;;;;;;5051634;28;20468;-59
2023/09/19 14:55:22;;;;;;;2.33;0.80;;;;;;;;;;5051618;28;20445;-58
2023/09/19 14:57:51;;;;;;;2.40;1.47;;;;;;;;;;5051018;28;20506;-60